This is the latest recevied weather packets stored in our database for station/object KP4DJT. If no packets are shown the sender has not sent any weather packets the latest 10 day(s).
| Time | Temp. | Humidity | Pressure | Rain* | Wind** | Luminosity | Snow |
|---|---|---|---|---|---|---|---|
| 1777155139 | 22.78° C | 76% | 1005.1 hPa | 0 mm | - | 321 W/m² | - |
| 1777150939 | 21.67° C | 83% | 1005.8 hPa | 0 mm | - | 448 W/m² | - |
| 1777147937 | 19.44° C | 95% | 1006.5 hPa | 0 mm | - | 515 W/m² | - |
| 1777146138 | 18.89° C | 95% | 1006.6 hPa | 0.25 mm | - | 207 W/m² | - |
| 1777145538 | 18.89° C | 95% | 1006.5 hPa | 0.25 mm | - | 211 W/m² | - |
| 1777137137 | 18.89° C | 88% | 1007.2 hPa | 0 mm | - | 248 W/m² | - |
| 1777130539 | 17.78° C | 86% | 1007.7 hPa | 0 mm | - | 301 W/m² | - |
| 1777126339 | 16.67° C | 90% | 1008 hPa | 0 mm | - | 209 W/m² | - |
| 1777125739 | 16.11° C | 91% | 1007.9 hPa | 0 mm | - | 161 W/m² | - |
| 1777125136 | 16.11° C | 92% | 1008.1 hPa | 0 mm | - | 123 W/m² | - |
| 1777123363 | 16.11° C | 92% | 1008.3 hPa | 0 mm | - | 106 W/m² | - |
| 1777120337 | 16.11° C | 93% | 1007.8 hPa | 0 mm | - | 52 W/m² | - |
| 1777115538 | 16.67° C | 93% | 1007 hPa | 0 mm | - | 0 W/m² | - |
| 1777109539 | 17.22° C | 93% | 1007.3 hPa | 0 mm | - | 0 W/m² | - |
| 1777105940 | 17.22° C | 95% | 1007.2 hPa | 0 mm | - | 0 W/m² | - |
| 1777105340 | 16.67° C | 95% | 1007.1 hPa | 0 mm | - | 0 W/m² | - |
| 1777104740 | 16.67° C | 95% | 1007.3 hPa | 0 mm | - | 0 W/m² | - |
| 1777102340 | 17.22° C | 95% | 1007.8 hPa | 0 mm | - | 0 W/m² | - |
| 1777099961 | 17.22° C | 93% | 1008 hPa | 0 mm | - | 0 W/m² | - |
| 1777098741 | 17.22° C | 92% | 1007.9 hPa | 0 mm | - | 0 W/m² | - |
| 1777096342 | 17.78° C | 88% | 1008.1 hPa | 0 mm | - | 0 W/m² | - |
| 1777094539 | 18.33° C | 88% | 1007.7 hPa | 0 mm | - | 0 W/m² | - |
| 1777092748 | 17.78° C | 89% | 1008.7 hPa | 0 mm | - | 0 W/m² | - |
| 1777087949 | 18.89° C | 84% | 1009 hPa | 0 mm | - | 0 W/m² | - |
| 1777086749 | 19.44° C | 83% | 1008.9 hPa | 0 mm | - | 0 W/m² | - |
* Rain latest hour (hover to see other rain measurements)
** Current wind speed in m/s (hover to see current wind gust speed)